createdAt,value
2022-11-12T00:00:33.295Z,4.38
2022-11-12T00:03:19.092Z,4.40
2022-11-12T00:06:04.494Z,4.15
2022-11-12T00:08:50.103Z,4.00
2022-11-12T00:11:35.326Z,4.15
2022-11-12T00:14:20.791Z,4.57
2022-11-12T00:17:06.149Z,4.07
2022-11-12T00:19:51.601Z,4.40
2022-11-12T00:22:37.200Z,4.25
2022-11-12T00:25:22.723Z,4.07
2022-11-12T00:28:10.461Z,4.25
2022-11-12T00:30:55.750Z,4.68
2022-11-12T00:33:42.998Z,4.40
2022-11-12T00:36:28.438Z,4.20
2022-11-12T00:39:13.937Z,4.30
2022-11-12T00:41:59.394Z,4.43
2022-11-12T00:44:44.974Z,4.57
2022-11-12T00:47:30.457Z,4.80
2022-11-12T00:50:16.790Z,4.97
2022-11-12T00:53:02.406Z,5.00
2022-11-12T00:55:47.758Z,4.68
2022-11-12T00:58:36.130Z,5.22
2022-11-12T01:01:22.021Z,4.50
2022-11-12T01:04:08.854Z,4.72
2022-11-12T01:06:54.494Z,4.00
2022-11-12T01:09:39.828Z,4.38
2022-11-12T01:12:25.335Z,4.40
2022-11-12T01:15:11.094Z,4.97
2022-11-12T01:17:56.645Z,4.97
2022-11-12T01:20:42.213Z,4.32
2022-11-12T01:23:27.547Z,4.68
2022-11-12T01:26:15.709Z,4.72
2022-11-12T01:29:01.170Z,4.55
2022-11-12T01:31:46.698Z,4.50
2022-11-12T01:34:32.418Z,4.57
2022-11-12T01:37:17.821Z,4.55
2022-11-12T01:40:06.494Z,4.40
2022-11-12T01:42:55.512Z,4.20
2022-11-12T01:45:43.670Z,3.80
2022-11-12T01:48:37.281Z,3.80
2022-11-12T01:51:25.226Z,3.88
2022-11-12T01:54:18.125Z,3.72
2022-11-12T01:57:04.103Z,3.25
2022-11-12T01:59:51.329Z,3.17
2022-11-12T02:02:38.028Z,3.60
2022-11-12T02:05:24.854Z,3.45
2022-11-12T02:08:13.199Z,3.10
2022-11-12T02:10:58.675Z,3.03
2022-11-12T02:13:57.833Z,2.97
2022-11-12T02:16:45.731Z,3.08
2022-11-12T02:19:31.037Z,2.83
2022-11-12T02:22:16.580Z,3.22
2022-11-12T02:25:02.108Z,2.92
2022-11-12T02:27:51.657Z,3.47
2022-11-12T02:30:47.535Z,3.33
2022-11-12T02:33:32.582Z,3.60
2022-11-12T02:36:18.124Z,3.20
2022-11-12T02:39:04.590Z,3.60
2022-11-12T02:41:49.964Z,3.58
2022-11-12T02:44:35.655Z,3.85
2022-11-12T02:47:21.040Z,3.65
2022-11-12T02:50:07.225Z,3.38
2022-11-12T02:52:52.590Z,3.00
2022-11-12T02:55:37.900Z,3.40
2022-11-12T02:58:23.817Z,3.60
2022-11-12T03:01:09.633Z,3.35
2022-11-12T03:03:55.169Z,3.75
2022-11-12T03:06:40.764Z,3.95
2022-11-12T03:09:26.154Z,3.40
2022-11-12T03:12:11.795Z,3.67
2022-11-12T03:14:57.321Z,3.70
2022-11-12T03:17:42.591Z,3.70
2022-11-12T03:20:29.775Z,3.85
2022-11-12T03:23:15.227Z,4.10
2022-11-12T03:26:03.284Z,3.65
2022-11-12T03:28:50.932Z,3.60
2022-11-12T03:31:36.288Z,3.85
2022-11-12T03:34:21.921Z,3.40
2022-11-12T03:37:09.526Z,3.42
2022-11-12T03:39:54.893Z,3.40
2022-11-12T03:42:45.576Z,3.97
2022-11-12T03:45:31.047Z,3.80
2022-11-12T03:48:16.151Z,4.40
2022-11-12T03:51:01.856Z,3.60
2022-11-12T03:53:47.317Z,4.03
2022-11-12T03:56:32.779Z,4.20
2022-11-12T03:59:18.445Z,4.65
2022-11-12T04:02:04.409Z,3.78
2022-11-12T04:05:08.244Z,3.97
2022-11-12T04:08:25.072Z,3.83
2022-11-12T04:11:13.928Z,4.45
2022-11-12T04:14:00.007Z,4.80
2022-11-12T04:17:03.826Z,4.68
2022-11-12T04:20:08.957Z,5.13
2022-11-12T04:22:54.586Z,4.25
2022-11-12T04:25:58.908Z,4.70
2022-11-12T04:29:04.613Z,4.93
2022-11-12T04:31:49.950Z,4.35
2022-11-12T04:34:35.505Z,4.75
2022-11-12T04:37:23.643Z,4.63
2022-11-12T04:40:39.641Z,4.90
2022-11-12T04:43:43.996Z,4.57
2022-11-12T04:46:29.540Z,4.70
2022-11-12T04:49:14.857Z,4.57
2022-11-12T04:52:06.309Z,4.53
2022-11-12T04:54:52.070Z,4.38
2022-11-12T04:57:38.206Z,4.97
2022-11-12T05:00:23.951Z,4.72
2022-11-12T05:03:09.422Z,4.35
2022-11-12T05:06:01.960Z,4.95
2022-11-12T05:08:47.173Z,4.60
2022-11-12T05:11:32.575Z,4.50
2022-11-12T05:14:18.146Z,4.45
2022-11-12T05:17:03.475Z,4.65
2022-11-12T05:19:49.031Z,4.22
2022-11-12T05:22:45.618Z,4.95
2022-11-12T05:25:31.622Z,4.45
2022-11-12T05:28:16.793Z,4.78
2022-11-12T05:31:01.923Z,4.43
2022-11-12T05:33:47.340Z,4.65
2022-11-12T05:36:32.451Z,4.85
2022-11-12T05:39:17.753Z,4.57
2022-11-12T05:42:13.086Z,4.60
2022-11-12T05:44:59.405Z,4.18
2022-11-12T05:47:44.683Z,3.63
2022-11-12T05:50:39.780Z,4.50
2022-11-12T05:53:35.397Z,4.25
2022-11-12T05:56:20.702Z,4.18
2022-11-12T05:59:09.365Z,3.85
2022-11-12T06:01:54.924Z,4.07
2022-11-12T06:04:40.334Z,4.47
2022-11-12T06:07:25.994Z,3.58
2022-11-12T06:10:13.732Z,4.00
2022-11-12T06:13:02.962Z,3.70
2022-11-12T06:15:48.283Z,4.28
2022-11-12T06:18:34.015Z,3.83
2022-11-12T06:21:19.407Z,3.45
2022-11-12T06:24:05.312Z,3.30
2022-11-12T06:26:50.462Z,3.65
2022-11-12T06:29:35.979Z,3.38
2022-11-12T06:32:21.270Z,3.40
2022-11-12T06:35:07.010Z,3.55
2022-11-12T06:37:52.200Z,3.80
2022-11-12T06:40:37.796Z,4.30
2022-11-12T06:43:24.182Z,3.47
2022-11-12T06:46:16.093Z,3.65
2022-11-12T06:49:01.682Z,4.25
2022-11-12T06:51:47.076Z,3.83
2022-11-12T06:54:32.662Z,3.53
2022-11-12T06:57:18.334Z,4.35
2022-11-12T07:00:04.126Z,4.45
2022-11-12T07:02:49.696Z,4.05
2022-11-12T07:05:38.654Z,4.00
2022-11-12T07:08:23.811Z,4.18
2022-11-12T07:11:35.221Z,4.70
2022-11-12T07:14:19.095Z,4.40
2022-11-12T07:17:05.375Z,3.80
2022-11-12T07:19:58.185Z,4.60
2022-11-12T07:22:48.497Z,5.20
2022-11-12T07:25:39.770Z,4.22
2022-11-12T07:28:26.842Z,4.20
2022-11-12T07:31:17.536Z,4.13
2022-11-12T07:34:07.114Z,4.10
2022-11-12T07:36:52.267Z,3.65
2022-11-12T07:39:39.448Z,3.95
2022-11-12T07:42:25.101Z,4.47
2022-11-12T07:45:10.890Z,4.30
2022-11-12T07:47:59.491Z,4.40
2022-11-12T07:50:45.114Z,4.93
2022-11-12T07:53:32.237Z,5.15
2022-11-12T07:56:22.955Z,5.22
2022-11-12T07:59:08.742Z,5.80
2022-11-12T08:01:56.315Z,7.47
2022-11-12T08:04:41.849Z,6.40
2022-11-12T08:07:27.552Z,7.75
2022-11-12T08:10:13.208Z,8.23
2022-11-12T08:12:58.802Z,7.32
2022-11-12T08:15:49.467Z,7.00
2022-11-12T08:18:37.646Z,6.13
2022-11-12T08:21:28.810Z,5.97
2022-11-12T08:24:14.761Z,6.25
2022-11-12T08:27:00.366Z,6.53
2022-11-12T08:29:52.994Z,8.10
2022-11-12T08:32:38.576Z,7.13
2022-11-12T08:35:27.896Z,36.00
2022-11-12T08:38:14.116Z,10.90
2022-11-12T08:41:04.658Z,9.93
2022-11-12T08:43:49.993Z,9.52
2022-11-12T08:46:35.428Z,9.40
2022-11-12T08:49:20.751Z,8.77
2022-11-12T08:52:06.170Z,9.02
2022-11-12T08:54:51.899Z,8.90
2022-11-12T08:57:44.227Z,9.55
2022-11-12T09:00:36.392Z,9.65
2022-11-12T09:03:24.135Z,9.98
2022-11-12T09:06:09.483Z,10.55
2022-11-12T09:08:55.159Z,9.38
2022-11-12T09:11:40.388Z,10.20
2022-11-12T09:14:26.351Z,9.35
2022-11-12T09:17:12.640Z,7.97
2022-11-12T09:19:58.042Z,7.80
2022-11-12T09:22:43.543Z,7.07
2022-11-12T09:25:28.968Z,8.13
2022-11-12T09:28:16.683Z,6.40
2022-11-12T09:31:02.661Z,5.88
2022-11-12T09:33:48.203Z,6.43
2022-11-12T09:36:39.482Z,6.15
2022-11-12T09:39:25.772Z,5.80
2022-11-12T09:42:19.099Z,5.07
2022-11-12T09:45:20.422Z,6.03
2022-11-12T09:48:12.641Z,5.80
2022-11-12T09:51:06.387Z,6.30
2022-11-12T09:53:57.800Z,6.35
2022-11-12T09:56:43.045Z,4.95
2022-11-12T09:59:33.573Z,5.53
2022-11-12T10:02:39.546Z,4.95
2022-11-12T10:05:41.926Z,4.68
2022-11-12T10:08:57.017Z,4.00
2022-11-12T10:12:24.088Z,4.35
2022-11-12T10:15:30.941Z,4.20
2022-11-12T10:18:40.978Z,4.22
2022-11-12T10:21:45.704Z,4.18
2022-11-12T10:24:36.131Z,5.68
2022-11-12T10:27:40.266Z,4.97
2022-11-12T10:30:25.992Z,5.60
2022-11-12T10:33:14.866Z,6.70
2022-11-12T10:36:28.915Z,6.97
2022-11-12T10:39:41.231Z,7.35
2022-11-12T10:42:27.140Z,7.10
2022-11-12T10:45:23.603Z,9.40
2022-11-12T10:48:33.909Z,8.52
2022-11-12T10:51:27.423Z,9.38
2022-11-12T10:54:27.402Z,10.23
2022-11-12T10:57:27.323Z,10.25
2022-11-12T11:00:12.686Z,9.32
2022-11-12T11:02:59.002Z,10.07
2022-11-12T11:05:54.085Z,9.00
2022-11-12T11:08:47.873Z,10.23
2022-11-12T11:11:33.899Z,10.45
2022-11-12T11:14:22.074Z,10.40
2022-11-12T11:17:18.270Z,10.35
2022-11-12T11:20:33.217Z,11.57
2022-11-12T11:23:23.950Z,12.13
2022-11-12T11:26:32.964Z,10.80
2022-11-12T11:29:58.217Z,10.25
2022-11-12T11:33:09.869Z,10.52
2022-11-12T11:36:13.856Z,10.45
2022-11-12T11:39:14.390Z,9.90
2022-11-12T11:42:32.776Z,10.10
2022-11-12T11:45:23.953Z,10.57
2022-11-12T11:48:34.873Z,10.60
2022-11-12T11:51:41.131Z,10.05
2022-11-12T11:54:51.263Z,11.57
2022-11-12T11:57:54.581Z,10.77
2022-11-12T12:01:07.474Z,12.00
2022-11-12T12:04:12.577Z,12.10
2022-11-12T12:07:22.075Z,12.88
2022-11-12T12:10:17.836Z,12.00
2022-11-12T12:13:32.197Z,12.35
2022-11-12T12:16:59.235Z,11.48
2022-11-12T12:20:00.847Z,12.52
2022-11-12T12:23:12.047Z,13.68
2022-11-12T12:26:00.930Z,13.27
2022-11-12T12:28:54.099Z,12.48
2022-11-12T12:31:47.291Z,12.10
2022-11-12T12:34:43.937Z,12.85
2022-11-12T12:37:43.883Z,12.03
2022-11-12T12:40:58.831Z,12.10
2022-11-12T12:43:52.442Z,11.30
2022-11-12T12:46:43.559Z,11.00
2022-11-12T12:49:34.141Z,9.95
2022-11-12T12:52:19.383Z,10.18
2022-11-12T12:55:04.962Z,10.73
2022-11-12T12:57:59.222Z,9.52
2022-11-12T13:00:51.839Z,7.65
2022-11-12T13:03:43.628Z,7.82
2022-11-12T13:06:55.072Z,8.10
2022-11-12T13:09:40.613Z,7.75
2022-11-12T13:13:01.922Z,8.02
2022-11-12T13:15:55.544Z,8.40
2022-11-12T13:18:40.752Z,7.78
2022-11-12T13:21:26.769Z,8.30
2022-11-12T13:24:14.211Z,8.15
2022-11-12T13:27:00.143Z,7.90
2022-11-12T13:29:47.641Z,7.95
2022-11-12T13:32:44.186Z,7.93
2022-11-12T13:35:35.931Z,7.82
2022-11-12T13:38:21.797Z,7.88
2022-11-12T13:41:19.581Z,7.13
2022-11-12T13:44:09.087Z,8.20
2022-11-12T13:46:56.071Z,7.88
2022-11-12T13:52:29.301Z,7.05
2022-11-12T13:55:22.989Z,7.10
2022-11-12T13:58:20.480Z,7.07
2022-11-12T14:01:07.916Z,7.75
2022-11-12T14:06:46.754Z,8.02
2022-11-12T14:09:50.879Z,7.05
2022-11-12T14:12:59.146Z,7.10
2022-11-12T14:16:17.286Z,6.72
2022-11-12T14:19:26.888Z,6.93
2022-11-12T14:22:18.452Z,6.93
2022-11-12T14:25:04.475Z,7.10
2022-11-12T14:27:51.811Z,7.07
2022-11-12T14:30:44.747Z,6.90
2022-11-12T14:33:31.902Z,6.93
2022-11-12T14:39:05.818Z,7.45
2022-11-12T14:41:52.438Z,7.82
2022-11-12T14:44:38.672Z,6.72
2022-11-12T14:47:24.377Z,7.07
2022-11-12T14:50:30.124Z,7.95
2022-11-12T14:53:25.582Z,7.68
2022-11-12T14:56:36.538Z,9.48
2022-11-12T14:59:22.070Z,9.32
2022-11-12T15:02:30.451Z,9.05
2022-11-12T15:05:20.508Z,4.55
2022-11-12T15:08:12.551Z,5.82
2022-11-12T15:11:20.339Z,6.20
2022-11-12T15:14:21.814Z,5.72
2022-11-12T15:17:18.409Z,5.20
2022-11-12T15:20:12.540Z,5.57
2022-11-12T15:22:58.102Z,5.28
2022-11-12T15:25:43.486Z,5.03
2022-11-12T15:28:29.031Z,5.28
2022-11-12T15:31:18.772Z,5.15
2022-11-12T15:34:27.767Z,5.47
2022-11-12T15:37:22.865Z,5.60
2022-11-12T15:40:19.873Z,5.75
2022-11-12T15:43:13.937Z,5.75
2022-11-12T15:45:59.646Z,5.75
2022-11-12T15:48:45.363Z,5.85
2022-11-12T15:51:31.274Z,5.03
2022-11-12T15:54:16.664Z,5.50
2022-11-12T15:57:02.407Z,5.18
2022-11-12T16:00:14.550Z,5.75
2022-11-12T16:03:20.394Z,5.95
2022-11-12T16:06:09.271Z,6.18
2022-11-12T16:08:58.170Z,5.75
2022-11-12T16:11:43.586Z,5.78
2022-11-12T16:14:29.365Z,5.72
2022-11-12T16:17:17.536Z,5.45
2022-11-12T16:20:05.837Z,4.53
2022-11-12T16:22:51.647Z,5.00
2022-11-12T16:25:41.128Z,4.40
2022-11-12T16:28:26.932Z,4.38
2022-11-12T16:31:12.145Z,4.50
2022-11-12T16:33:57.752Z,4.70
2022-11-12T16:36:43.039Z,4.47
2022-11-12T16:39:28.316Z,4.65
2022-11-12T16:42:13.874Z,4.70
2022-11-12T16:44:59.260Z,5.10
2022-11-12T16:47:50.043Z,5.22
2022-11-12T16:50:35.552Z,6.75
2022-11-12T16:53:20.911Z,6.07
2022-11-12T16:56:17.908Z,5.85
2022-11-12T16:59:04.283Z,5.57
2022-11-12T17:01:55.684Z,5.70
2022-11-12T17:04:41.049Z,5.10
2022-11-12T17:07:26.386Z,3.42
2022-11-12T17:10:12.107Z,2.70
2022-11-12T17:12:57.336Z,4.00
2022-11-12T17:15:43.067Z,3.75
2022-11-12T17:18:28.791Z,3.55
2022-11-12T17:21:17.918Z,3.92
2022-11-12T17:24:03.429Z,4.22
2022-11-12T17:26:49.081Z,4.40
2022-11-12T17:29:34.981Z,5.13
2022-11-12T17:32:20.178Z,4.30
2022-11-12T17:35:06.040Z,4.38
2022-11-12T17:38:18.070Z,5.50
2022-11-12T17:41:04.370Z,5.38
2022-11-12T17:43:57.592Z,4.82
2022-11-12T17:49:53.175Z,6.53
2022-11-12T17:52:48.786Z,6.30
2022-11-12T17:55:36.105Z,7.13
2022-11-12T17:58:21.396Z,6.30
2022-11-12T18:01:21.831Z,6.03
2022-11-12T18:04:11.177Z,5.40
2022-11-12T18:06:56.558Z,5.38
2022-11-12T18:09:42.082Z,5.55
2022-11-12T18:12:27.631Z,5.38
2022-11-12T18:15:33.524Z,5.40
2022-11-12T18:18:19.771Z,5.13
2022-11-12T18:21:05.426Z,4.75
2022-11-12T18:23:51.016Z,3.97
2022-11-12T18:26:36.528Z,4.68
2022-11-12T18:29:21.801Z,4.22
2022-11-12T18:32:07.696Z,4.78
2022-11-12T18:34:52.815Z,4.78
2022-11-12T18:37:38.009Z,5.35
2022-11-12T18:40:23.963Z,4.82
2022-11-12T18:43:09.051Z,7.00
2022-11-12T18:45:59.196Z,5.60
2022-11-12T18:48:44.586Z,5.90
2022-11-12T18:51:29.967Z,6.00
2022-11-12T18:54:16.204Z,5.40
2022-11-12T18:57:01.371Z,5.03
2022-11-12T18:59:47.842Z,5.13
2022-11-12T19:02:33.422Z,5.53
2022-11-12T19:05:20.895Z,5.90
2022-11-12T19:08:09.425Z,5.47
2022-11-12T19:10:59.070Z,5.70
2022-11-12T19:13:44.928Z,6.07
2022-11-12T19:16:32.518Z,6.05
2022-11-12T19:22:03.518Z,6.43
2022-11-12T19:24:50.199Z,6.28
2022-11-12T19:27:35.898Z,6.53
2022-11-12T19:30:21.412Z,6.60
2022-11-12T19:33:06.706Z,6.68
2022-11-12T19:35:52.146Z,6.20
2022-11-12T19:38:37.725Z,6.38
2022-11-12T19:41:23.645Z,5.93
2022-11-12T19:44:08.931Z,6.40
2022-11-12T19:46:54.360Z,7.05
2022-11-12T19:49:39.684Z,6.30
2022-11-12T19:52:26.395Z,6.22
2022-11-12T19:55:12.035Z,5.60
2022-11-12T19:57:57.623Z,6.75
2022-11-12T20:00:43.034Z,6.20
2022-11-12T20:03:30.164Z,6.82
2022-11-12T20:06:20.094Z,7.70
2022-11-12T20:09:12.244Z,8.30
2022-11-12T20:11:57.655Z,10.60
2022-11-12T20:14:43.128Z,10.68
2022-11-12T20:17:34.989Z,15.68
2022-11-12T20:20:20.273Z,13.63
2022-11-12T20:23:05.535Z,12.45
2022-11-12T20:25:52.377Z,11.05
2022-11-12T20:28:39.860Z,14.20
2022-11-12T20:31:25.186Z,15.77
2022-11-12T20:34:19.836Z,14.48
2022-11-12T20:37:05.300Z,14.68
2022-11-12T20:39:52.605Z,16.40
2022-11-12T20:42:38.134Z,16.80
2022-11-12T20:45:23.855Z,18.67
2022-11-12T20:48:09.402Z,17.13
2022-11-12T20:51:22.655Z,19.67
2022-11-12T20:54:14.666Z,20.15
2022-11-12T20:57:02.919Z,21.02
2022-11-12T20:59:51.370Z,20.55
2022-11-12T21:02:49.483Z,18.23
2022-11-12T21:05:37.055Z,21.75
2022-11-12T21:08:26.909Z,22.85
2022-11-12T21:11:15.413Z,23.42
2022-11-12T21:14:04.397Z,25.05
2022-11-12T21:16:51.095Z,23.83
2022-11-12T21:19:36.397Z,21.73
2022-11-12T21:22:21.704Z,22.85
2022-11-12T21:25:07.586Z,21.17
2022-11-12T21:27:52.774Z,21.83
2022-11-12T21:30:38.555Z,21.40
2022-11-12T21:33:24.024Z,24.10
2022-11-12T21:36:15.872Z,27.95
2022-11-12T21:39:03.294Z,21.20
2022-11-12T21:41:49.248Z,22.60
2022-11-12T21:44:34.894Z,20.58
2022-11-12T21:47:20.340Z,17.75
2022-11-12T21:50:06.194Z,18.00
2022-11-12T21:52:51.319Z,16.35
2022-11-12T21:55:36.769Z,16.70
2022-11-12T21:58:22.051Z,15.25
2022-11-12T22:01:13.331Z,19.30
2022-11-12T22:03:59.704Z,18.98
2022-11-12T22:06:45.071Z,19.10
2022-11-12T22:09:30.677Z,20.13
2022-11-12T22:12:16.100Z,22.02
2022-11-12T22:15:01.247Z,22.95
2022-11-12T22:17:46.573Z,17.13
2022-11-12T22:20:31.713Z,19.45
2022-11-12T22:23:16.998Z,22.10
2022-11-12T22:26:08.123Z,21.75
2022-11-12T22:28:55.193Z,21.15
2022-11-12T22:31:40.221Z,22.85
2022-11-12T22:34:25.625Z,22.17
2022-11-12T22:37:11.735Z,23.98
2022-11-12T22:39:57.272Z,22.33
2022-11-12T22:42:42.533Z,22.30
2022-11-12T22:45:28.065Z,22.27
2022-11-12T22:48:13.369Z,21.52
2022-11-12T22:51:00.756Z,23.30
2022-11-12T22:53:46.067Z,22.42
2022-11-12T22:56:34.288Z,22.10
2022-11-12T22:59:22.365Z,22.10
2022-11-12T23:02:08.083Z,22.92
2022-11-12T23:04:53.640Z,22.50
2022-11-12T23:07:39.169Z,22.88
2022-11-12T23:10:24.377Z,22.83
2022-11-12T23:13:09.922Z,23.15
2022-11-12T23:15:55.046Z,22.30
2022-11-12T23:18:40.364Z,24.98
2022-11-12T23:21:28.951Z,22.27
2022-11-12T23:24:14.351Z,24.20
2022-11-12T23:27:01.133Z,22.10
2022-11-12T23:29:46.544Z,22.25
2022-11-12T23:32:32.302Z,21.70
2022-11-12T23:35:17.807Z,23.75
2022-11-12T23:38:03.208Z,22.65
2022-11-12T23:40:56.006Z,24.38
2022-11-12T23:43:42.047Z,24.70
2022-11-12T23:46:27.690Z,23.48
2022-11-12T23:49:12.831Z,24.80
2022-11-12T23:51:58.162Z,24.73
2022-11-12T23:54:43.377Z,25.55
2022-11-12T23:57:28.895Z,26.98
